ADDS METAR Data INFO
IDs: Format: Raw Decoded Include TAF

Data at: 0031 UTC 15 Dec 2017

KBAX 150015Z AUTO 21004KT 10SM SCT035 M17/M19 A3002 RMK AO2 T11701187
KBAX 142355Z AUTO 21003KT 10SM CLR M16/M18 A3001 RMK AO2 T11651181 11089 21175
KBAX 142335Z AUTO 21004KT 10SM CLR M16/M18 A3001 RMK AO2 T11621183
KBAX 142315Z AUTO 00000KT 10SM CLR M16/M18 A3000 RMK AO2 T11611181
KBAX 142255Z AUTO 00000KT 10SM CLR M15/M17 A3000 RMK AO2 T11481171
KBAX 142235Z AUTO 00000KT 10SM CLR M14/M16 A3000 RMK AO2 T11421165
KBAX 142215Z AUTO 00000KT 10SM CLR M14/M17 A3000 RMK AO2 T11431170
KBAX 142155Z AUTO 24003KT 10SM SCT120 M12/M16 A3000 RMK AO2 T11251158
KBAX 142135Z AUTO 26003KT 10SM BKN120 M12/M16 A3000 RMK AO2 T11201157
KBAX 142115Z AUTO 27005KT 10SM CLR M11/M15 A3000 RMK AO2 T11101151
KBAX 142055Z AUTO 26004KT 10SM CLR M11/M15 A3000 RMK AO2 T11091147
KBAX 142035Z AUTO 25006KT 10SM CLR M10/M14 A3000 RMK AO2 T11051141
KBAX 142015Z AUTO 26006KT 10SM CLR M10/M14 A3000 RMK AO2 T11011137
KBAX 141955Z AUTO 26007KT 10SM CLR M10/M14 A3000 RMK AO2 T11011137
KBAX 141935Z AUTO 27007KT 10SM SCT017 M09/M13 A2999 RMK AO2 T10951135
KBAX 141915Z AUTO 27007KT 10SM -SN OVC017 M09/M13 A2999 RMK AO2 T10901131
KBAX 141855Z AUTO 28010KT 10SM OVC017 M09/M13 A3000 RMK AO2 T10941130
KBAX 141835Z AUTO 28007KT 7SM -SN OVC017 M09/M13 A2999 RMK AO2 T10941131
KBAX 141815Z AUTO 27007KT 10SM BKN017 M09/M13 A2999 RMK AO2 T10931135
KBAX 141755Z AUTO 28010KT 10SM SCT019 M09/M13 A2999 RMK AO2 T10881135 11087 21116
KBAX 141735Z AUTO 29007KT 10SM CLR M09/M14 A2999 RMK AO2 T10911142
KBAX 141715Z AUTO 28006KT 10SM CLR M09/M14 A2999 RMK AO2 T10921145
KBAX 141655Z AUTO 30007KT 10SM CLR M09/M14 A2999 RMK AO2 T10941145
KBAX 141635Z AUTO 31006KT 10SM CLR M10/M14 A2999 RMK AO2 T10981143
KBAX 141615Z AUTO 32006KT 10SM SCT017 M10/M14 A2998 RMK AO2 T11051143
KBAX 141555Z AUTO 32007KT 10SM SCT017 M11/M14 A2999 RMK AO2 T11061142
KBAX 141535Z AUTO 33009KT 10SM CLR M11/M15 A2998 RMK AO2 T11091146
KBAX 141515Z AUTO 31007KT 10SM CLR M11/M14 A2997 RMK AO2 T11081144
KBAX 141455Z AUTO 32008KT 10SM SCT019 M11/M14 A2996 RMK AO2 T11111143
KBAX 141435Z AUTO 32006KT 10SM OVC017 M11/M14 A2995 RMK AO2 T11081139
KBAX 141416Z AUTO 33008KT 10SM OVC017 M10/M13 A2994 RMK AO2 T11051135
KBAX 141355Z AUTO 32008KT 10SM -SN OVC017 M10/M13 A2992 RMK AO2 T11041134
KBAX 141335Z AUTO 32008KT 10SM -SN OVC017 M11/M13 A2991 RMK AO2 T11061133
KBAX 141315Z AUTO 30005KT 10SM -SN OVC019 M11/M14 A2990 RMK AO2 T11101136
KBAX 141255Z AUTO 31008KT 10SM -SN OVC019 M11/M14 A2989 RMK AO2 T11151140
KBAX 141235Z AUTO 31005KT 10SM -SN BKN019 M12/M14 A2988 RMK AO2 T11161140
KBAX 141215Z AUTO 30007KT 10SM -SN SCT019 M11/M14 A2987 RMK AO2 T11151138
KBAX 141155Z AUTO 33010KT 10SM SCT019 M11/M13 A2986 RMK AO2 T11091135 11063 21110
KBAX 141135Z AUTO 33010KT 10SM CLR M10/M13 A2985 RMK AO2 T11051130
KBAX 141115Z AUTO 32009KT 7SM -SN CLR M11/M13 A2983 RMK AO2 T11091131
KBAX 141055Z AUTO 32007KT 7SM -SN CLR M11/M13 A2982 RMK AO2 T11081130
KBAX 141035Z AUTO 32009KT 7SM CLR M10/M13 A2981 RMK AO2 T11041128
KBAX 141015Z AUTO 32007KT 10SM SCT020 SCT028 M10/M12 A2980 RMK AO2 T11011124
KBAX 140955Z AUTO 33010KT 7SM -SN BKN016 OVC024 M09/M11 A2978 RMK AO2 T10871111
KBAX 140935Z AUTO 33010KT 4SM -SN OVC014 M08/M10 A2976 RMK AO2 T10791104
KBAX 140915Z AUTO 35010KT 5SM -SN SCT016 BKN027 OVC035 M08/M10 A2975 RMK AO2 T10761101
KBAX 140855Z AUTO 34009G15KT 10SM SCT020 BKN028 BKN035 M08/M11 A2974 RMK AO2 T10791106
KBAX 140836Z AUTO 36009KT 10SM SCT020 SCT030 BKN037 M08/M11 A2973 RMK AO2 T10771112
KBAX 140815Z AUTO 36007KT 10SM SCT029 BKN037 M08/M10 A2972 RMK AO2 T10761104
KBAX 140755Z AUTO 36007KT 10SM SCT020 SCT029 BKN037 M08/M10 A2971 RMK AO2 T10761097
KBAX 140736Z AUTO 02008KT 7SM -SN SCT015 SCT020 BKN040 M07/M09 A2970 RMK AO2 T10721092
KBAX 140715Z AUTO 01007KT 4SM -SN SCT014 BKN023 OVC029 M07/M08 A2968 RMK AO2 T10701085
KBAX 140655Z AUTO 01007KT 2 1/2SM -SN SCT009 BKN012 OVC030 M06/M08 A2967 RMK AO2 VIS 1 1/2V5 T10651078
KBAX 140635Z AUTO 01005KT 1 1/4SM SN SCT009 OVC013 M06/M07 A2965 RMK AO2 T10631075
KBAX 140615Z AUTO 02005KT 5SM -SN SCT004 BKN022 OVC036 M07/M08 A2964 RMK AO2 T10661078
KBAX 140555Z AUTO 03006KT 1SM -SN BKN004 OVC014 M07/M08 A2963 RMK AO2 T10681083 11060 21073 410601122
KBAX 140535Z AUTO 02006KT 10SM SCT023 SCT037 BKN046 M07/M09 A2962 RMK AO2 T10721088
KBAX 140515Z AUTO 03005KT 10SM SCT035 BKN050 OVC055 M07/M08 A2961 RMK AO2 T10671082
KBAX 140455Z AUTO 04005KT 10SM -SN SCT017 BKN038 OVC047 M06/M08 A2959 RMK AO2 T10651080
KBAX 140435Z AUTO 03007KT 7SM -SN SCT020 BKN036 OVC047 M06/M08 A2959 RMK AO2 T10651080
KBAX 140415Z AUTO 04008G14KT 5SM -SN SCT010 BKN019 OVC025 M06/M08 A2958 RMK AO2 T10641076
KBAX 140355Z AUTO 04011KT 2SM -SN BKN012 OVC018 M06/M07 A2956 RMK AO2 VIS 1 3/4V3 T10601071
KBAX 140335Z AUTO 03008KT 3SM -SN SCT012 BKN020 OVC065 M07/M08 A2955 RMK AO2 T10661076
KBAX 140315Z AUTO 01005KT 10SM -SN SCT014 BKN070 OVC075 M07/M08 A2954 RMK AO2 T10711082
KBAX 140255Z AUTO 01004KT 5SM -SN BKN037 BKN048 OVC070 M07/M08 A2954 RMK AO2 T10701081
KBAX 140235Z AUTO 03005KT 4SM -SN OVC037 M07/M08 A2954 RMK AO2 T10701082
KBAX 140215Z AUTO 03005KT 4SM -SN OVC035 M07/M08 A2954 RMK AO2 T10701081
KBAX 140155Z AUTO 03006KT 4SM -SN SCT021 OVC037 M07/M08 A2954 RMK AO2 T10701082
KBAX 140135Z AUTO 03005KT 3SM -SN BKN021 OVC026 M07/M08 A2954 RMK AO2 T10701082
KBAX 140115Z AUTO 03007KT 5SM -SN SCT013 BKN021 OVC026 M07/M08 A2954 RMK AO2 T10701081
KBAX 140055Z AUTO 04005KT 2SM -SN OVC011 M07/M08 A2953 RMK AO2 T10701081
KBAX 140035Z AUTO 04005KT 1 3/4SM -SN OVC013 M07/M08 A2954 RMK AO2 T10701082
KBAX 140015Z AUTO 04006KT 1 3/4SM -SN OVC011 M07/M08 A2954 RMK AO2 T10721085
KBAX 132355Z AUTO 05006KT 1 1/2SM -SN OVC009 M07/M09 A2953 RMK AO2 T10731086 11073 21089
KBAX 132335Z AUTO 06004KT 1SM SN OVC007 M07/M09 A2954 RMK AO2 T10751087
KBAX 132315Z AUTO 05003KT 1 1/4SM -SN OVC011 M07/M09 A2954 RMK AO2 T10751090
KBAX 132255Z AUTO 05004KT 1 1/2SM -SN OVC011 M08/M09 A2954 RMK AO2 T10761091
KBAX 132235Z AUTO 07004KT 2 1/2SM -SN BKN021 OVC025 M08/M09 A2953 RMK AO2 T10771093
KBAX 132215Z AUTO 07005KT 2SM -SN BKN021 OVC027 M08/M10 A2952 RMK AO2 T10801096
KBAX 132155Z AUTO 07005KT 1 1/2SM -SN OVC017 M08/M10 A2951 RMK AO2 T10821100
KBAX 132135Z AUTO 07005KT 3/4SM -SN OVC015 M08/M10 A2952 RMK AO2 T10851102
KBAX 132115Z AUTO 08007KT 3/4SM -SN OVC013 M08/M10 A2952 RMK AO2 T10851105
KBAX 132055Z AUTO 08008KT 1SM -SN OVC015 M09/M11 A2954 RMK AO2 T10871107
KBAX 132035Z AUTO 09005KT 1SM -SN SCT009 OVC015 M09/M11 A2955 RMK AO2 T10881110
KBAX 132016Z AUTO 10005KT 1 1/4SM -SN SCT009 BKN021 OVC030 M09/M11 A2956 RMK AO2 T10881111
KBAX 131955Z AUTO 10003KT 1 1/4SM -SN BKN018 OVC032 M09/M11 A2958 RMK AO2 T10881111
KBAX 131935Z AUTO 13004KT 1SM -SN OVC018 M09/M11 A2959 RMK AO2 T10881112
KBAX 131915Z AUTO 12005KT 1SM -SN OVC016 M09/M11 A2960 RMK AO2 T10871115
KBAX 131855Z AUTO 11005KT 1SM -SN BKN016 OVC026 M09/M11 A2961 RMK AO2 T10861114
KBAX 131835Z AUTO 10005KT 1 1/2SM -SN SCT022 OVC028 M08/M11 A2962 RMK AO2 T10851115
KBAX 131815Z AUTO 12006KT 2SM -SN OVC032 M09/M12 A2964 RMK AO2 T10861118
KBAX 131755Z AUTO 16006KT 2 1/2SM -SN OVC032 M09/M12 A2965 RMK AO2 T10861120 11085 21107
KBAX 131735Z AUTO 18007KT 5SM -SN SCT030 BKN037 OVC043 M08/M12 A2967 RMK AO2 T10851122
KBAX 131715Z AUTO 16006KT 10SM SCT041 BKN049 OVC055 M08/M13 A2968 RMK AO2 T10851126
KBAX 131655Z AUTO 18007KT 10SM SCT031 BKN055 OVC085 M08/M13 A2970 RMK AO2 T10851127
KBAX 131635Z AUTO 17005KT 10SM OVC032 M09/M13 A2972 RMK AO2 T10891130
KBAX 131615Z AUTO 19006KT 10SM OVC035 M09/M13 A2973 RMK AO2 T10941132
KBAX 131555Z AUTO 19006KT 10SM BKN037 BKN060 OVC070 M10/M13 A2974 RMK AO2 T10971134
KBAX 131535Z AUTO 19007KT 10SM SCT037 BKN055 OVC070 M10/M13 A2975 RMK AO2 T10991135
KBAX 131515Z AUTO 20005KT 10SM OVC037 M10/M13 A2975 RMK AO2 T11001135
KBAX 131455Z AUTO 20005KT 10SM OVC033 M10/M14 A2975 RMK AO2 T11011136
KBAX 131435Z AUTO 22004KT 10SM OVC033 M10/M14 A2975 RMK AO2 T11021136
KBAX 131415Z AUTO 00000KT 10SM OVC031 M10/M14 A2975 RMK AO2 T11051139
KBAX 131355Z AUTO 15003KT 10SM OVC031 M11/M14 A2977 RMK AO2 T11061140
KBAX 131335Z AUTO 17003KT 10SM OVC031 M11/M14 A2977 RMK AO2 T11061140
KBAX 131315Z AUTO 20003KT 10SM OVC031 M11/M14 A2978 RMK AO2 T11061140
KBAX 131255Z AUTO 00000KT 10SM OVC031 M11/M14 A2978 RMK AO2 T11061140
KBAX 131235Z AUTO 00000KT 10SM OVC031 M11/M14 A2978 RMK AO2 T11061142